sensor_id;sensor_type;location;lat;lon;timestamp;pressure;altitude;pressure_sealevel;temperature;humidity
21086;BME280;34247;50.064;19.970;2023-03-13T00:00:16;98864.72;;;6.98;44.88
21086;BME280;34247;50.064;19.970;2023-03-13T00:01:30;98856.72;;;6.99;44.66
21086;BME280;34247;50.064;19.970;2023-03-13T00:02:34;98861.91;;;7.01;44.86
21086;BME280;34247;50.064;19.970;2023-03-13T00:03:38;98856.63;;;7.01;44.72
21086;BME280;34247;50.064;19.970;2023-03-13T00:04:41;98860.88;;;7.03;44.85
21086;BME280;34247;50.064;19.970;2023-03-13T00:05:45;98860.69;;;7.06;44.90
21086;BME280;34247;50.064;19.970;2023-03-13T00:06:49;98866.81;;;7.07;44.98
21086;BME280;34247;50.064;19.970;2023-03-13T00:07:53;98870.19;;;7.09;44.73
21086;BME280;34247;50.064;19.970;2023-03-13T00:08:58;98866.63;;;7.10;44.97
21086;BME280;34247;50.064;19.970;2023-03-13T00:10:04;98868.34;;;7.11;44.86
21086;BME280;34247;50.064;19.970;2023-03-13T00:11:10;98864.75;;;7.12;45.13
21086;BME280;34247;50.064;19.970;2023-03-13T00:12:14;98865.69;;;7.11;45.22
21086;BME280;34247;50.064;19.970;2023-03-13T00:13:19;98870.03;;;7.12;45.17
21086;BME280;34247;50.064;19.970;2023-03-13T00:14:23;98877.00;;;7.13;45.15
21086;BME280;34247;50.064;19.970;2023-03-13T00:15:27;98871.03;;;7.09;45.47
21086;BME280;34247;50.064;19.970;2023-03-13T00:16:31;98873.50;;;7.12;45.50
21086;BME280;34247;50.064;19.970;2023-03-13T00:17:37;98877.75;;;7.15;45.32
21086;BME280;34247;50.064;19.970;2023-03-13T00:18:49;98875.09;;;7.15;45.40
21086;BME280;34247;50.064;19.970;2023-03-13T00:19:54;98871.72;;;7.13;45.68
21086;BME280;34247;50.064;19.970;2023-03-13T00:21:07;98874.25;;;7.14;45.67
21086;BME280;34247;50.064;19.970;2023-03-13T00:22:11;98876.78;;;7.16;45.62
21086;BME280;34247;50.064;19.970;2023-03-13T00:23:15;98879.44;;;7.16;45.84
21086;BME280;34247;50.064;19.970;2023-03-13T00:24:19;98878.69;;;7.14;45.75
21086;BME280;34247;50.064;19.970;2023-03-13T00:25:23;98878.88;;;7.11;46.33
21086;BME280;34247;50.064;19.970;2023-03-13T00:26:28;98878.69;;;7.14;46.23
21086;BME280;34247;50.064;19.970;2023-03-13T00:27:33;98873.41;;;7.14;46.45
21086;BME280;34247;50.064;19.970;2023-03-13T00:28:39;98861.81;;;7.16;46.14
21086;BME280;34247;50.064;19.970;2023-03-13T00:29:43;98862.00;;;7.13;46.63
21086;BME280;34247;50.064;19.970;2023-03-13T00:30:46;98861.16;;;7.13;46.31
21086;BME280;34247;50.064;19.970;2023-03-13T00:31:51;98864.75;;;7.12;46.83
21086;BME280;34247;50.064;19.970;2023-03-13T00:32:55;98864.53;;;7.15;46.56
21086;BME280;34247;50.064;19.970;2023-03-13T00:34:01;98852.13;;;7.17;46.21
21086;BME280;34247;50.064;19.970;2023-03-13T00:35:05;98857.47;;;7.15;46.88
21086;BME280;34247;50.064;19.970;2023-03-13T00:36:16;98853.03;;;7.16;46.61
21086;BME280;34247;50.064;19.970;2023-03-13T00:37:23;98855.63;;;7.17;46.75
21086;BME280;34247;50.064;19.970;2023-03-13T00:38:29;98853.81;;;7.18;46.89
21086;BME280;34247;50.064;19.970;2023-03-13T00:39:33;98847.59;;;7.19;47.00
21086;BME280;34247;50.064;19.970;2023-03-13T00:40:37;98840.69;;;7.16;47.32
21086;BME280;34247;50.064;19.970;2023-03-13T00:41:41;98845.13;;;7.16;47.41
21086;BME280;34247;50.064;19.970;2023-03-13T00:42:46;98834.50;;;7.17;47.25
21086;BME280;34247;50.064;19.970;2023-03-13T00:43:50;98830.81;;;7.20;47.12
21086;BME280;34247;50.064;19.970;2023-03-13T00:44:54;98829.13;;;7.19;47.55
21086;BME280;34247;50.064;19.970;2023-03-13T00:45:58;98836.84;;;7.22;47.18
21086;BME280;34247;50.064;19.970;2023-03-13T00:47:02;98838.53;;;7.23;47.30
21086;BME280;34247;50.064;19.970;2023-03-13T00:48:07;98835.88;;;7.23;47.26
21086;BME280;34247;50.064;19.970;2023-03-13T00:49:11;98835.88;;;7.23;47.14
21086;BME280;34247;50.064;19.970;2023-03-13T00:50:15;98837.56;;;7.24;47.52
21086;BME280;34247;50.064;19.970;2023-03-13T00:51:21;98836.72;;;7.24;47.48
21086;BME280;34247;50.064;19.970;2023-03-13T00:52:26;98832.28;;;7.24;47.66
21086;BME280;34247;50.064;19.970;2023-03-13T00:53:33;98833.19;;;7.25;47.47
21086;BME280;34247;50.064;19.970;2023-03-13T00:54:36;98839.56;;;7.21;48.20
21086;BME280;34247;50.064;19.970;2023-03-13T00:56:55;98835.88;;;7.23;48.45
21086;BME280;34247;50.064;19.970;2023-03-13T00:57:59;98835.81;;;7.25;48.24
21086;BME280;34247;50.064;19.970;2023-03-13T00:59:02;98826.00;;;7.27;48.17
21086;BME280;34247;50.064;19.970;2023-03-13T01:00:07;98831.06;;;7.30;48.28
21086;BME280;34247;50.064;19.970;2023-03-13T01:01:21;98825.69;;;7.31;48.57
21086;BME280;34247;50.064;19.970;2023-03-13T01:02:25;98818.66;;;7.32;48.30
21086;BME280;34247;50.064;19.970;2023-03-13T01:03:29;98822.03;;;7.34;48.66
21086;BME280;34247;50.064;19.970;2023-03-13T01:04:32;98815.72;;;7.36;48.52
21086;BME280;34247;50.064;19.970;2023-03-13T01:05:36;98816.56;;;7.37;48.54
21086;BME280;34247;50.064;19.970;2023-03-13T01:06:41;98815.59;;;7.38;48.82
21086;BME280;34247;50.064;19.970;2023-03-13T01:07:45;98812.22;;;7.36;49.61
21086;BME280;34247;50.064;19.970;2023-03-13T01:08:49;98812.97;;;7.38;49.46
21086;BME280;34247;50.064;19.970;2023-03-13T01:09:53;98814.69;;;7.39;49.38
21086;BME280;34247;50.064;19.970;2023-03-13T01:11:04;98815.53;;;7.39;49.45
21086;BME280;34247;50.064;19.970;2023-03-13T01:12:08;98817.22;;;7.40;49.45
21086;BME280;34247;50.064;19.970;2023-03-13T01:13:18;98809.31;;;7.40;50.03
21086;BME280;34247;50.064;19.970;2023-03-13T01:14:23;98804.75;;;7.42;49.89
21086;BME280;34247;50.064;19.970;2023-03-13T01:15:26;98808.16;;;7.44;49.65
21086;BME280;34247;50.064;19.970;2023-03-13T01:16:33;98804.66;;;7.44;50.46
21086;BME280;34247;50.064;19.970;2023-03-13T01:17:37;98802.78;;;7.46;50.46
21086;BME280;34247;50.064;19.970;2023-03-13T01:18:51;98791.56;;;7.42;51.27
21086;BME280;34247;50.064;19.970;2023-03-13T01:19:56;98784.88;;;7.37;51.62
21086;BME280;34247;50.064;19.970;2023-03-13T01:21:01;98784.75;;;7.38;51.71
21086;BME280;34247;50.064;19.970;2023-03-13T01:22:04;98788.19;;;7.40;51.52
21086;BME280;34247;50.064;19.970;2023-03-13T01:23:08;98781.94;;;7.41;51.81
21086;BME280;34247;50.064;19.970;2023-03-13T01:24:12;98787.97;;;7.43;51.84
21086;BME280;34247;50.064;19.970;2023-03-13T01:25:17;98781.09;;;7.41;51.94
21086;BME280;34247;50.064;19.970;2023-03-13T01:26:21;98787.41;;;7.38;52.16
21086;BME280;34247;50.064;19.970;2023-03-13T01:27:25;98800.53;;;7.40;51.95
21086;BME280;34247;50.064;19.970;2023-03-13T01:28:29;98797.13;;;7.38;53.20
21086;BME280;34247;50.064;19.970;2023-03-13T01:29:33;98798.84;;;7.39;53.15
21086;BME280;34247;50.064;19.970;2023-03-13T01:30:36;98793.47;;;7.40;52.93
21086;BME280;34247;50.064;19.970;2023-03-13T01:31:40;98794.09;;;7.44;52.36
21086;BME280;34247;50.064;19.970;2023-03-13T01:32:44;98791.34;;;7.45;52.61
21086;BME280;34247;50.064;19.970;2023-03-13T01:33:52;98792.22;;;7.46;52.74
21086;BME280;34247;50.064;19.970;2023-03-13T01:34:57;98793.06;;;7.46;53.33
21086;BME280;34247;50.064;19.970;2023-03-13T01:36:02;98793.16;;;7.45;53.05
21086;BME280;34247;50.064;19.970;2023-03-13T01:37:06;98794.09;;;7.44;53.75
21086;BME280;34247;50.064;19.970;2023-03-13T01:38:10;98791.34;;;7.45;53.37
21086;BME280;34247;50.064;19.970;2023-03-13T01:39:14;98790.34;;;7.48;53.44
21086;BME280;34247;50.064;19.970;2023-03-13T01:40:17;98790.34;;;7.48;53.68
21086;BME280;34247;50.064;19.970;2023-03-13T01:41:22;98788.53;;;7.49;53.48
21086;BME280;34247;50.064;19.970;2023-03-13T01:42:27;98784.09;;;7.49;53.59
21086;BME280;34247;50.064;19.970;2023-03-13T01:43:33;98788.53;;;7.49;53.92
21086;BME280;34247;50.064;19.970;2023-03-13T01:44:53;98787.03;;;7.44;56.45
21086;BME280;34247;50.064;19.970;2023-03-13T01:47:13;98797.41;;;7.47;55.92
21086;BME280;34247;50.064;19.970;2023-03-13T01:48:17;98792.97;;;7.48;55.35
21086;BME280;34247;50.064;19.970;2023-03-13T01:49:29;98792.88;;;7.50;55.24
21086;BME280;34247;50.064;19.970;2023-03-13T01:50:36;98791.91;;;7.51;55.56
21086;BME280;34247;50.064;19.970;2023-03-13T01:51:50;98797.94;;;7.53;55.27
21086;BME280;34247;50.064;19.970;2023-03-13T01:52:56;98787.47;;;7.51;56.23
21086;BME280;34247;50.064;19.970;2023-03-13T01:55:14;98794.56;;;7.51;56.13
21086;BME280;34247;50.064;19.970;2023-03-13T01:56:30;98803.22;;;7.53;56.08
21086;BME280;34247;50.064;19.970;2023-03-13T01:57:42;98799.00;;;7.50;56.92
21086;BME280;34247;50.064;19.970;2023-03-13T01:58:51;98809.47;;;7.52;56.54
21086;BME280;34247;50.064;19.970;2023-03-13T02:00:03;98803.34;;;7.51;57.79
21086;BME280;34247;50.064;19.970;2023-03-13T02:10:14;98821.44;;;7.43;58.68
21086;BME280;34247;50.064;19.970;2023-03-13T02:12:40;98823.81;;;7.47;58.88
21086;BME280;34247;50.064;19.970;2023-03-13T02:13:49;98823.81;;;7.47;59.23
21086;BME280;34247;50.064;19.970;2023-03-13T02:14:57;98823.72;;;7.49;59.30
21086;BME280;34247;50.064;19.970;2023-03-13T02:16:02;98823.72;;;7.49;58.98
21086;BME280;34247;50.064;19.970;2023-03-13T02:17:06;98820.03;;;7.52;59.31
21086;BME280;34247;50.064;19.970;2023-03-13T02:18:11;98828.78;;;7.52;58.45
21086;BME280;34247;50.064;19.970;2023-03-13T02:20:38;98824.66;;;7.48;59.50
21086;BME280;34247;50.064;19.970;2023-03-13T02:22:31;98829.63;;;7.53;59.77
21086;BME280;34247;50.064;19.970;2023-03-13T02:23:58;98821.63;;;7.54;59.29
21086;BME280;34247;50.064;19.970;2023-03-13T02:26:12;98826.81;;;7.56;59.10
21086;BME280;34247;50.064;19.970;2023-03-13T02:27:16;98834.53;;;7.59;59.12
21086;BME280;34247;50.064;19.970;2023-03-13T02:28:25;98831.03;;;7.58;59.64
21086;BME280;34247;50.064;19.970;2023-03-13T02:29:31;98833.59;;;7.60;59.04
21086;BME280;34247;50.064;19.970;2023-03-13T02:30:37;98835.31;;;7.61;59.01
21086;BME280;34247;50.064;19.970;2023-03-13T02:31:48;98834.44;;;7.60;59.09
21086;BME280;34247;50.064;19.970;2023-03-13T02:32:54;98845.88;;;7.61;59.18
21086;BME280;34247;50.064;19.970;2023-03-13T02:34:00;98839.53;;;7.63;59.07
21086;BME280;34247;50.064;19.970;2023-03-13T02:35:10;98838.59;;;7.64;59.17
21086;BME280;34247;50.064;19.970;2023-03-13T02:36:16;98837.63;;;7.65;59.19
21086;BME280;34247;50.064;19.970;2023-03-13T02:37:23;98847.47;;;7.63;59.66
21086;BME280;34247;50.064;19.970;2023-03-13T02:38:32;98854.22;;;7.67;59.35
21086;BME280;34247;50.064;19.970;2023-03-13T02:39:42;98853.31;;;7.68;59.20
21086;BME280;34247;50.064;19.970;2023-03-13T02:40:51;98854.16;;;7.69;59.48
21086;BME280;34247;50.064;19.970;2023-03-13T02:41:56;98856.97;;;7.66;59.80
21086;BME280;34247;50.064;19.970;2023-03-13T02:43:11;98856.81;;;7.69;59.50
21086;BME280;34247;50.064;19.970;2023-03-13T02:44:17;98855.13;;;7.68;59.77
21086;BME280;34247;50.064;19.970;2023-03-13T02:45:21;98863.03;;;7.68;59.95
21086;BME280;34247;50.064;19.970;2023-03-13T02:46:25;98859.44;;;7.69;59.54
21086;BME280;34247;50.064;19.970;2023-03-13T02:47:29;98864.63;;;7.70;59.49
21086;BME280;34247;50.064;19.970;2023-03-13T02:48:40;98859.22;;;7.72;59.30
21086;BME280;34247;50.064;19.970;2023-03-13T02:49:45;98867.16;;;7.72;59.77
21086;BME280;34247;50.064;19.970;2023-03-13T02:50:49;98862.63;;;7.74;59.60
21086;BME280;34247;50.064;19.970;2023-03-13T02:51:56;98859.22;;;7.72;59.97
21086;BME280;34247;50.064;19.970;2023-03-13T02:53:05;98861.31;;;7.67;60.26
21086;BME280;34247;50.064;19.970;2023-03-13T02:54:17;98863.03;;;7.68;60.49
21086;BME280;34247;50.064;19.970;2023-03-13T02:55:31;98868.97;;;7.71;60.31
21086;BME280;34247;50.064;19.970;2023-03-13T02:56:40;98875.28;;;7.69;60.50
21086;BME280;34247;50.064;19.970;2023-03-13T02:57:44;98874.44;;;7.68;60.51
21086;BME280;34247;50.064;19.970;2023-03-13T02:58:47;98866.22;;;7.73;60.34
21086;BME280;34247;50.064;19.970;2023-03-13T02:59:52;98878.69;;;7.71;60.45
21086;BME280;34247;50.064;19.970;2023-03-13T03:00:56;98869.81;;;7.72;60.71
21086;BME280;34247;50.064;19.970;2023-03-13T03:02:03;98871.50;;;7.73;60.75
21086;BME280;34247;50.064;19.970;2023-03-13T03:03:07;98871.38;;;7.74;60.48
21086;BME280;34247;50.064;19.970;2023-03-13T03:04:11;98860.81;;;7.74;60.45
21086;BME280;34247;50.064;19.970;2023-03-13T03:05:15;98863.69;;;7.71;60.52
21086;BME280;34247;50.064;19.970;2023-03-13T03:06:18;98867.72;;;7.77;60.39
21086;BME280;34247;50.064;19.970;2023-03-13T03:07:22;98871.38;;;7.74;60.70
21086;BME280;34247;50.064;19.970;2023-03-13T03:08:26;98865.19;;;7.76;60.65
21086;BME280;34247;50.064;19.970;2023-03-13T03:09:30;98866.78;;;7.78;60.32
21086;BME280;34247;50.064;19.970;2023-03-13T03:10:36;98864.97;;;7.79;60.31
21086;BME280;34247;50.064;19.970;2023-03-13T03:11:40;98857.06;;;7.79;60.15
21086;BME280;34247;50.064;19.970;2023-03-13T03:12:44;98856.94;;;7.80;60.31
21086;BME280;34247;50.064;19.970;2023-03-13T03:13:50;98869.41;;;7.78;60.63
21086;BME280;34247;50.064;19.970;2023-03-13T03:14:54;98868.38;;;7.81;60.44
21086;BME280;34247;50.064;19.970;2023-03-13T03:15:58;98870.94;;;7.82;60.10
21086;BME280;34247;50.064;19.970;2023-03-13T03:17:03;98871.78;;;7.83;60.46
21086;BME280;34247;50.064;19.970;2023-03-13T03:18:07;98866.56;;;7.81;60.71
21086;BME280;34247;50.064;19.970;2023-03-13T03:19:11;98876.22;;;7.82;60.52
21086;BME280;34247;50.064;19.970;2023-03-13T03:20:15;98873.47;;;7.84;60.54
21086;BME280;34247;50.064;19.970;2023-03-13T03:21:18;98874.31;;;7.84;60.56
21086;BME280;34247;50.064;19.970;2023-03-13T03:22:24;98868.94;;;7.86;60.22
21086;BME280;34247;50.064;19.970;2023-03-13T03:23:27;98871.56;;;7.86;60.43
21086;BME280;34247;50.064;19.970;2023-03-13T03:24:31;98877.69;;;7.86;60.94
21086;BME280;34247;50.064;19.970;2023-03-13T03:25:35;98877.59;;;7.88;60.52
21086;BME280;34247;50.064;19.970;2023-03-13T03:26:38;98876.75;;;7.87;60.66
21086;BME280;34247;50.064;19.970;2023-03-13T03:27:43;98880.13;;;7.89;60.37
21086;BME280;34247;50.064;19.970;2023-03-13T03:28:46;98874.97;;;7.88;60.97
21086;BME280;34247;50.064;19.970;2023-03-13T03:29:50;98871.38;;;7.89;60.68
21086;BME280;34247;50.064;19.970;2023-03-13T03:30:54;98875.63;;;7.91;60.50
21086;BME280;34247;50.064;19.970;2023-03-13T03:31:58;98871.28;;;7.90;60.53
21086;BME280;34247;50.064;19.970;2023-03-13T03:33:03;98871.19;;;7.92;60.36
21086;BME280;34247;50.064;19.970;2023-03-13T03:34:07;98870.34;;;7.91;60.60
21086;BME280;34247;50.064;19.970;2023-03-13T03:35:11;98866.00;;;7.90;60.64
21086;BME280;34247;50.064;19.970;2023-03-13T03:36:19;98867.69;;;7.91;60.62
21086;BME280;34247;50.064;19.970;2023-03-13T03:37:23;98869.38;;;7.92;60.41
21086;BME280;34247;50.064;19.970;2023-03-13T03:38:28;98865.91;;;7.92;60.80
21086;BME280;34247;50.064;19.970;2023-03-13T03:39:32;98871.09;;;7.93;60.57
21086;BME280;34247;50.064;19.970;2023-03-13T03:40:36;98870.25;;;7.93;60.85
21086;BME280;34247;50.064;19.970;2023-03-13T03:41:39;98870.25;;;7.93;60.88
21086;BME280;34247;50.064;19.970;2023-03-13T03:42:43;98868.22;;;7.96;60.68
21086;BME280;34247;50.064;19.970;2023-03-13T03:43:47;98869.97;;;7.97;60.54
21086;BME280;34247;50.064;19.970;2023-03-13T03:44:52;98871.75;;;7.97;60.77
21086;BME280;34247;50.064;19.970;2023-03-13T03:45:55;98868.06;;;7.99;60.66
21086;BME280;34247;50.064;19.970;2023-03-13T03:47:00;98880.31;;;8.00;60.89
21086;BME280;34247;50.064;19.970;2023-03-13T03:48:04;98870.59;;;8.01;60.66
21086;BME280;34247;50.064;19.970;2023-03-13T03:49:07;98878.41;;;8.02;60.45
21086;BME280;34247;50.064;19.970;2023-03-13T03:50:11;98880.09;;;8.03;60.37
21086;BME280;34247;50.064;19.970;2023-03-13T03:51:15;98878.22;;;8.06;60.67
21086;BME280;34247;50.064;19.970;2023-03-13T03:52:18;98880.09;;;8.03;61.17
21086;BME280;34247;50.064;19.970;2023-03-13T03:53:23;98880.03;;;8.05;60.63
21086;BME280;34247;50.064;19.970;2023-03-13T03:54:27;98883.53;;;8.06;61.09
21086;BME280;34247;50.064;19.970;2023-03-13T03:55:32;98884.38;;;8.06;60.94
21086;BME280;34247;50.064;19.970;2023-03-13T03:56:37;98872.94;;;8.06;61.08
21086;BME280;34247;50.064;19.970;2023-03-13T03:57:40;98879.94;;;8.07;60.94
21086;BME280;34247;50.064;19.970;2023-03-13T03:58:44;98872.75;;;8.09;60.91
21086;BME280;34247;50.064;19.970;2023-03-13T03:59:48;98874.44;;;8.10;60.82
21086;BME280;34247;50.064;19.970;2023-03-13T04:00:55;98880.56;;;8.10;61.04
21086;BME280;34247;50.064;19.970;2023-03-13T04:01:59;98871.78;;;8.10;60.92
21086;BME280;34247;50.064;19.970;2023-03-13T04:03:04;98874.34;;;8.11;60.79
21086;BME280;34247;50.064;19.970;2023-03-13T04:04:17;98870.00;;;8.10;61.18
21086;BME280;34247;50.064;19.970;2023-03-13T04:05:22;98874.25;;;8.13;60.98
21086;BME280;34247;50.064;19.970;2023-03-13T04:06:25;98871.78;;;8.10;61.51
21086;BME280;34247;50.064;19.970;2023-03-13T04:07:29;98877.84;;;8.12;61.22
21086;BME280;34247;50.064;19.970;2023-03-13T04:08:33;98877.75;;;8.13;61.32
21086;BME280;34247;50.064;19.970;2023-03-13T04:09:36;98875.09;;;8.13;61.02
21086;BME280;34247;50.064;19.970;2023-03-13T04:10:41;98875.94;;;8.14;61.24
21086;BME280;34247;50.064;19.970;2023-03-13T04:11:45;98882.91;;;8.15;61.13
21086;BME280;34247;50.064;19.970;2023-03-13T04:12:48;98880.28;;;8.15;61.36
21086;BME280;34247;50.064;19.970;2023-03-13T04:13:52;98879.66;;;8.11;62.13
21086;BME280;34247;50.064;19.970;2023-03-13T04:14:58;98876.13;;;8.11;61.73
21086;BME280;34247;50.064;19.970;2023-03-13T04:16:09;98878.69;;;8.12;61.81
21086;BME280;34247;50.064;19.970;2023-03-13T04:17:13;98876.03;;;8.12;61.93
21086;BME280;34247;50.064;19.970;2023-03-13T04:18:18;98873.28;;;8.14;61.57
21086;BME280;34247;50.064;19.970;2023-03-13T04:19:22;98876.03;;;8.12;61.71
21086;BME280;34247;50.064;19.970;2023-03-13T04:20:26;98876.91;;;8.13;62.07
21086;BME280;34247;50.064;19.970;2023-03-13T04:21:31;98877.84;;;8.12;61.66
21086;BME280;34247;50.064;19.970;2023-03-13T04:22:35;98875.84;;;8.15;62.10
21086;BME280;34247;50.064;19.970;2023-03-13T04:23:41;98877.75;;;8.13;62.18
21086;BME280;34247;50.064;19.970;2023-03-13T04:24:45;98874.03;;;8.16;62.14
21086;BME280;34247;50.064;19.970;2023-03-13T04:25:48;98879.31;;;8.16;62.33
21086;BME280;34247;50.064;19.970;2023-03-13T04:26:54;98883.56;;;8.18;62.29
21086;BME280;34247;50.064;19.970;2023-03-13T04:27:57;98877.53;;;8.16;62.59
21086;BME280;34247;50.064;19.970;2023-03-13T04:29:01;98884.94;;;8.11;63.79
21086;BME280;34247;50.064;19.970;2023-03-13T04:30:06;98886.50;;;8.14;63.28
21086;BME280;34247;50.064;19.970;2023-03-13T04:31:10;98887.25;;;8.16;63.28
21086;BME280;34247;50.064;19.970;2023-03-13T04:32:14;98879.22;;;8.17;62.88
21086;BME280;34247;50.064;19.970;2023-03-13T04:33:18;98878.19;;;8.20;62.85
21086;BME280;34247;50.064;19.970;2023-03-13T04:34:22;98873.75;;;8.20;63.25
21086;BME280;34247;50.064;19.970;2023-03-13T04:35:26;98869.69;;;8.15;64.45
21086;BME280;34247;50.064;19.970;2023-03-13T04:36:30;98867.06;;;8.15;64.53
21086;BME280;34247;50.064;19.970;2023-03-13T04:37:34;98869.59;;;8.16;64.37
21086;BME280;34247;50.064;19.970;2023-03-13T04:38:39;98869.59;;;8.16;64.48
21086;BME280;34247;50.064;19.970;2023-03-13T04:39:42;98864.31;;;8.16;64.65
21086;BME280;34247;50.064;19.970;2023-03-13T04:40:46;98867.06;;;8.15;64.96
21086;BME280;34247;50.064;19.970;2023-03-13T04:41:52;98863.47;;;8.16;64.94
21086;BME280;34247;50.064;19.970;2023-03-13T04:42:57;98856.38;;;8.16;64.94
21086;BME280;34247;50.064;19.970;2023-03-13T04:44:00;98870.66;;;8.14;65.21
21086;BME280;34247;50.064;19.970;2023-03-13T04:45:04;98864.41;;;8.15;65.42
21086;BME280;34247;50.064;19.970;2023-03-13T04:46:08;98867.78;;;8.17;65.39
21086;BME280;34247;50.064;19.970;2023-03-13T04:47:12;98872.06;;;8.19;65.30
21086;BME280;34247;50.064;19.970;2023-03-13T04:48:16;98873.84;;;8.19;65.95
21086;BME280;34247;50.064;19.970;2023-03-13T04:49:20;98874.16;;;8.14;66.34
21086;BME280;34247;50.064;19.970;2023-03-13T04:50:24;98867.06;;;8.15;66.42
21086;BME280;34247;50.064;19.970;2023-03-13T04:51:27;98870.44;;;8.17;65.85
21086;BME280;34247;50.064;19.970;2023-03-13T04:52:31;98879.88;;;8.21;65.86
21086;BME280;34247;50.064;19.970;2023-03-13T04:53:35;98875.72;;;8.17;66.34
21086;BME280;34247;50.064;19.970;2023-03-13T04:54:39;98867.91;;;8.15;66.75
21086;BME280;34247;50.064;19.970;2023-03-13T04:55:43;98877.63;;;8.15;66.81
21086;BME280;34247;50.064;19.970;2023-03-13T04:56:47;98874.03;;;8.16;67.12
21086;BME280;34247;50.064;19.970;2023-03-13T04:57:51;98879.09;;;8.06;68.03
21086;BME280;34247;50.064;19.970;2023-03-13T04:58:54;98876.34;;;8.08;68.33
21086;BME280;34247;50.064;19.970;2023-03-13T04:59:58;98868.00;;;8.14;67.73
21086;BME280;34247;50.064;19.970;2023-03-13T05:01:02;98876.56;;;8.17;67.35
21086;BME280;34247;50.064;19.970;2023-03-13T05:02:05;98875.63;;;8.18;67.36
21086;BME280;34247;50.064;19.970;2023-03-13T05:03:09;98876.28;;;8.22;67.31
21086;BME280;34247;50.064;19.970;2023-03-13T05:04:12;98877.88;;;8.24;67.40
21086;BME280;34247;50.064;19.970;2023-03-13T05:05:16;98866.28;;;8.27;67.05
21086;BME280;34247;50.064;19.970;2023-03-13T05:06:20;98877.03;;;8.24;67.59
21086;BME280;34247;50.064;19.970;2023-03-13T05:07:24;98867.97;;;8.28;67.33
21086;BME280;34247;50.064;19.970;2023-03-13T05:08:27;98868.81;;;8.28;67.72
21086;BME280;34247;50.064;19.970;2023-03-13T05:09:31;98863.53;;;8.28;67.55
21086;BME280;34247;50.064;19.970;2023-03-13T05:10:34;98870.72;;;8.26;68.01
21086;BME280;34247;50.064;19.970;2023-03-13T05:11:38;98868.16;;;8.25;67.99
21086;BME280;34247;50.064;19.970;2023-03-13T05:12:44;98867.97;;;8.28;68.02
21086;BME280;34247;50.064;19.970;2023-03-13T05:13:48;98857.88;;;8.20;68.46
21086;BME280;34247;50.064;19.970;2023-03-13T05:14:52;98871.28;;;8.17;69.03
21086;BME280;34247;50.064;19.970;2023-03-13T05:15:56;98863.28;;;8.19;68.75
21086;BME280;34247;50.064;19.970;2023-03-13T05:17:00;98866.44;;;8.24;68.79
21086;BME280;34247;50.064;19.970;2023-03-13T05:18:04;98865.59;;;8.23;68.90
21086;BME280;34247;50.064;19.970;2023-03-13T05:19:08;98854.00;;;8.26;68.60
21086;BME280;34247;50.064;19.970;2023-03-13T05:20:17;98871.34;;;8.30;68.54
21086;BME280;34247;50.064;19.970;2023-03-13T05:21:21;98862.69;;;8.28;68.81
21086;BME280;34247;50.064;19.970;2023-03-13T05:22:25;98854.75;;;8.28;68.94
21086;BME280;34247;50.064;19.970;2023-03-13T05:23:29;98856.31;;;8.30;68.69
21086;BME280;34247;50.064;19.970;2023-03-13T05:24:32;98859.91;;;8.29;69.15
21086;BME280;34247;50.064;19.970;2023-03-13T05:25:36;98858.97;;;8.30;69.31
21086;BME280;34247;50.064;19.970;2023-03-13T05:26:40;98861.81;;;8.27;69.41
21086;BME280;34247;50.064;19.970;2023-03-13T05:27:44;98851.78;;;8.33;69.33
21086;BME280;34247;50.064;19.970;2023-03-13T05:28:48;98855.13;;;8.36;68.63
21086;BME280;34247;50.064;19.970;2023-03-13T05:29:52;98860.41;;;8.36;69.22
21086;BME280;34247;50.064;19.970;2023-03-13T05:30:56;98847.25;;;8.35;69.15
21086;BME280;34247;50.064;19.970;2023-03-13T05:32:00;98848.88;;;8.37;69.04
21086;BME280;34247;50.064;19.970;2023-03-13T05:33:03;98848.47;;;8.43;68.91
21086;BME280;34247;50.064;19.970;2023-03-13T05:34:07;98840.44;;;8.45;69.17
21086;BME280;34247;50.064;19.970;2023-03-13T05:35:11;98832.50;;;8.45;68.97
21086;BME280;34247;50.064;19.970;2023-03-13T05:36:15;98835.97;;;8.45;69.14
21086;BME280;34247;50.064;19.970;2023-03-13T05:37:19;98837.47;;;8.49;68.79
21086;BME280;34247;50.064;19.970;2023-03-13T05:38:22;98829.44;;;8.51;68.83
21086;BME280;34247;50.064;19.970;2023-03-13T05:39:26;98830.94;;;8.55;68.81
21086;BME280;34247;50.064;19.970;2023-03-13T05:40:30;98820.25;;;8.56;69.04
21086;BME280;34247;50.064;19.970;2023-03-13T05:41:34;98826.56;;;8.54;69.07
21086;BME280;34247;50.064;19.970;2023-03-13T05:42:38;98831.56;;;8.59;68.67
21086;BME280;34247;50.064;19.970;2023-03-13T05:43:42;98831.03;;;8.53;69.52
21086;BME280;34247;50.064;19.970;2023-03-13T05:44:46;98825.53;;;8.56;69.46
21086;BME280;34247;50.064;19.970;2023-03-13T05:45:50;98828.09;;;8.58;69.55
21086;BME280;34247;50.064;19.970;2023-03-13T05:46:54;98826.16;;;8.60;69.47
21086;BME280;34247;50.064;19.970;2023-03-13T05:47:58;98828.09;;;8.58;69.55
21086;BME280;34247;50.064;19.970;2023-03-13T05:49:02;98826.38;;;8.57;69.57
21086;BME280;34247;50.064;19.970;2023-03-13T05:50:07;98826.50;;;8.55;69.76
21086;BME280;34247;50.064;19.970;2023-03-13T05:51:11;98820.16;;;8.58;69.91
21086;BME280;34247;50.064;19.970;2023-03-13T05:52:16;98821.50;;;8.51;70.72
21086;BME280;34247;50.064;19.970;2023-03-13T05:53:20;98831.03;;;8.53;70.57
21086;BME280;34247;50.064;19.970;2023-03-13T05:54:24;98823.41;;;8.49;70.93
21086;BME280;34247;50.064;19.970;2023-03-13T05:55:27;98826.78;;;8.51;70.94
21086;BME280;34247;50.064;19.970;2023-03-13T05:56:31;98823.19;;;8.52;70.87
21086;BME280;34247;50.064;19.970;2023-03-13T05:57:35;98825.53;;;8.56;70.73
21086;BME280;34247;50.064;19.970;2023-03-13T05:58:39;98820.75;;;8.62;70.51
21086;BME280;34247;50.064;19.970;2023-03-13T05:59:43;98825.03;;;8.64;70.62
21086;BME280;34247;50.064;19.970;2023-03-13T06:00:47;98815.28;;;8.65;70.51
21086;BME280;34247;50.064;19.970;2023-03-13T06:01:51;98823.41;;;8.62;70.92